Time;durP1;ratioP1;P1;durP2;ratioP2;P2;SDS_P1;SDS_P2;PMS_P1;PMS_P2;Temp;Humidity;BMP_temperature;BMP_pressure;BME280_temperature;BME280_humidity;BME280_pressure;Samples;Min_cycle;Max_cycle;Signal;HPM_P1;HPM_P2
2023/05/28 00:02:08;;;;;;;12.00;6.80;;;13.30;99.90;;;;;;5004655;28;20427;-84
2023/05/28 00:04:36;;;;;;;9.23;7.90;;;13.30;99.90;;;;;;5005583;28;20795;-84
2023/05/28 00:07:03;;;;;;;13.23;7.23;;;13.30;99.90;;;;;;5005731;28;20480;-84
2023/05/28 00:09:30;;;;;;;12.40;9.73;;;13.40;99.90;;;;;;5004805;28;20536;-83
2023/05/28 00:11:58;;;;;;;10.10;7.80;;;13.40;99.90;;;;;;5014345;28;20456;-83
2023/05/28 00:14:25;;;;;;;8.53;7.53;;;13.30;99.90;;;;;;5015090;28;20449;-84
2023/05/28 00:16:51;;;;;;;10.80;7.20;;;13.20;99.90;;;;;;5006901;28;20532;-84
2023/05/28 00:19:18;;;;;;;8.67;7.10;;;13.20;99.90;;;;;;5006723;28;20508;-84
2023/05/28 00:21:45;;;;;;;10.83;7.57;;;13.10;99.90;;;;;;5016764;28;20457;-84
2023/05/28 00:24:12;;;;;;;9.77;7.27;;;13.10;99.90;;;;;;5017448;28;20433;-83
2023/05/28 00:26:39;;;;;;;12.20;7.77;;;13.20;99.90;;;;;;5006187;28;20562;-84
2023/05/28 00:29:07;;;;;;;8.27;6.40;;;13.00;99.90;;;;;;5006414;28;20445;-84
2023/05/28 00:31:34;;;;;;;14.20;8.13;;;12.90;99.90;;;;;;5005154;28;20452;-83
2023/05/28 00:34:01;;;;;;;10.00;7.37;;;12.90;99.90;;;;;;5004433;28;20535;-84
2023/05/28 00:36:28;;;;;;;8.90;8.00;;;12.90;99.90;;;;;;5004653;28;20840;-84
2023/05/28 00:38:55;;;;;;;9.70;7.70;;;12.90;99.90;;;;;;5014162;28;20549;-83
2023/05/28 00:41:22;;;;;;;9.23;7.10;;;12.90;99.90;;;;;;5019866;28;20472;-82
2023/05/28 00:43:49;;;;;;;9.13;6.80;;;12.80;99.90;;;;;;5017910;28;20461;-84
2023/05/28 00:46:21;;;;;;;10.17;7.50;;;12.70;1.00;;;;;;5006173;28;20456;-84
2023/05/28 00:48:48;;;;;;;10.80;7.73;;;12.20;1.00;;;;;;5004482;28;20495;-84
2023/05/28 00:51:16;;;;;;;10.03;8.00;;;12.40;1.00;;;;;;5003347;28;20504;-84
2023/05/28 00:53:44;;;;;;;13.33;9.17;;;12.60;99.90;;;;;;5003705;28;20453;-85
2023/05/28 00:56:12;;;;;;;16.13;8.60;;;12.80;1.00;;;;;;5012616;28;20465;-85
2023/05/28 00:58:40;;;;;;;13.17;7.50;;;12.40;1.00;;;;;;5016451;28;20446;-84
2023/05/28 01:01:07;;;;;;;10.27;7.80;;;12.40;99.90;;;;;;5016371;28;20419;-84
2023/05/28 01:03:38;;;;;;;11.40;7.30;;;12.40;99.90;;;;;;5015293;28;20449;-84
2023/05/28 01:06:09;;;;;;;21.13;8.03;;;12.50;1.00;;;;;;5012054;28;20425;-84
2023/05/28 01:08:36;;;;;;;13.20;7.30;;;12.40;99.90;;;;;;5008928;28;20497;-85
2023/05/28 01:11:04;;;;;;;10.13;7.47;;;12.40;99.90;;;;;;5003983;28;20507;-85
2023/05/28 01:13:31;;;;;;;10.23;7.50;;;12.30;99.90;;;;;;5003298;28;20484;-84
2023/05/28 01:15:59;;;;;;;11.07;7.40;;;;;;;;;;5002929;28;20528;-84
2023/05/28 01:18:27;;;;;;;20.83;8.27;;;12.40;99.90;;;;;;5002151;28;20453;-84
2023/05/28 01:20:55;;;;;;;11.00;7.90;;;12.50;99.90;;;;;;5002802;28;20484;-84
2023/05/28 01:23:28;;;;;;;10.83;7.53;;;12.40;99.90;;;;;;5002857;28;20531;-84
2023/05/28 01:25:59;;;;;;;9.13;7.80;;;12.40;99.90;;;;;;5003591;28;20433;-84
2023/05/28 01:28:26;;;;;;;14.03;8.57;;;12.40;99.90;;;;;;5004111;28;20516;-84
2023/05/28 01:30:53;;;;;;;18.33;8.37;;;12.30;99.90;;;;;;5003474;28;20521;-84
2023/05/28 01:33:22;;;;;;;7.83;7.10;;;12.20;99.90;;;;;;5003994;28;20867;-83
2023/05/28 01:35:51;;;;;;;10.63;7.93;;;12.30;1.00;;;;;;5011317;28;20511;-83
2023/05/28 01:38:20;;;;;;;9.50;8.20;;;12.10;99.90;;;;;;5005872;28;20525;-84
2023/05/28 01:40:48;;;;;;;9.57;8.50;;;12.10;99.90;;;;;;5005146;28;20488;-85
2023/05/28 01:43:18;;;;;;;10.63;8.03;;;12.10;99.90;;;;;;5010890;28;20487;-83
2023/05/28 01:45:45;;;;;;;10.10;8.30;;;12.10;99.90;;;;;;5014137;28;20477;-83
2023/05/28 01:48:12;;;;;;;15.00;8.13;;;12.10;99.90;;;;;;5014283;28;20477;-84
2023/05/28 01:50:39;;;;;;;10.90;8.07;;;12.10;99.90;;;;;;5017053;28;20489;-83
2023/05/28 01:53:06;;;;;;;10.97;8.23;;;12.00;99.90;;;;;;5017548;28;20517;-83
2023/05/28 01:55:33;;;;;;;13.23;9.00;;;12.10;1.00;;;;;;5017864;28;20420;-83
2023/05/28 01:58:00;;;;;;;11.77;9.00;;;12.00;1.00;;;;;;5017512;28;20473;-83
2023/05/28 02:00:29;;;;;;;8.73;7.83;;;12.00;1.00;;;;;;5017744;28;20492;-83
2023/05/28 02:02:55;;;;;;;12.73;8.10;;;11.90;1.00;;;;;;5009812;28;20457;-83
2023/05/28 02:05:22;;;;;;;11.83;8.17;;;12.00;1.00;;;;;;5006826;28;20512;-84
2023/05/28 02:07:49;;;;;;;13.40;7.80;;;11.90;1.00;;;;;;5009356;28;20545;-83
2023/05/28 02:10:16;;;;;;;9.10;7.83;;;12.10;1.00;;;;;;5008194;28;20453;-84
2023/05/28 02:12:43;;;;;;;10.23;8.23;;;12.00;24.70;;;;;;5008294;28;20451;-84
2023/05/28 02:15:11;;;;;;;10.80;8.10;;;11.70;1.00;;;;;;5007972;28;20453;-84
2023/05/28 02:17:39;;;;;;;10.23;8.60;;;11.70;1.00;;;;;;5007785;28;20476;-84
2023/05/28 02:20:07;;;;;;;10.80;8.10;;;11.70;1.00;;;;;;5007982;28;20552;-84
2023/05/28 02:22:34;;;;;;;10.23;7.70;;;11.60;1.00;;;;;;5015066;28;20483;-84
2023/05/28 02:25:01;;;;;;;8.80;7.90;;;11.60;1.00;;;;;;5020849;28;20452;-82
2023/05/28 02:27:28;;;;;;;9.77;8.70;;;12.00;8.00;;;;;;5022374;28;20504;-84
2023/05/28 02:29:57;;;;;;;12.00;8.63;;;11.40;49.10;;;;;;5012904;28;20445;-85
2023/05/28 02:32:24;;;;;;;11.50;9.00;;;11.50;1.00;;;;;;5005897;28;20456;-85
2023/05/28 02:34:54;;;;;;;13.90;7.77;;;11.50;1.00;;;;;;5006780;28;20476;-85
2023/05/28 02:37:23;;;;;;;13.17;7.80;;;11.50;1.00;;;;;;5007551;28;20469;-85
2023/05/28 02:39:50;;;;;;;10.67;7.67;;;11.40;1.00;;;;;;5007145;28;20512;-85
2023/05/28 02:42:17;;;;;;;9.77;7.57;;;11.50;1.00;;;;;;5007842;28;20512;-85
2023/05/28 02:44:44;;;;;;;9.90;8.00;;;11.50;1.00;;;;;;5011978;28;20452;-85
2023/05/28 02:47:11;;;;;;;9.27;8.17;;;11.50;1.00;;;;;;5019239;28;20465;-84
2023/05/28 02:49:37;;;;;;;11.63;8.30;;;11.50;1.00;;;;;;5015721;28;20455;-85
2023/05/28 02:52:07;;;;;;;9.97;7.90;;;11.50;1.00;;;;;;5008250;28;20536;-86
2023/05/28 02:54:34;;;;;;;11.87;7.17;;;11.40;1.00;;;;;;5007343;28;20453;-85
2023/05/28 02:57:05;;;;;;;12.43;9.47;;;;;;;;;;5031808;23;20491;-89
2023/05/28 02:59:39;;;;;;;11.27;7.43;;;11.30;1.00;;;;;;5000858;28;20481;-89
2023/05/28 03:02:10;;;;;;;15.30;7.53;;;;;;;;;;5003454;28;20491;-89
2023/05/28 03:04:40;;;;;;;9.47;7.80;;;;;;;;;;5001510;28;20449;-89
2023/05/28 03:07:09;;;;;;;8.10;7.30;;;11.30;1.00;;;;;;5002008;28;20483;-88
2023/05/28 03:09:39;;;;;;;10.20;7.87;;;11.30;1.00;;;;;;5001938;28;20449;-90
2023/05/28 03:12:11;;;;;;;8.50;7.70;;;;;;;;;;5005045;28;20998;-89
2023/05/28 03:14:38;;;;;;;10.80;7.33;;;;;;;;;;5001497;28;20445;-89
2023/05/28 03:17:06;;;;;;;9.60;6.83;;;;;;;;;;5004063;28;20473;-90
2023/05/28 03:19:40;;;;;;;10.67;7.77;;;11.30;1.00;;;;;;5001805;28;20503;-88
2023/05/28 03:22:16;;;;;;;10.87;7.80;;;;;;;;;;5002493;28;20476;-88
2023/05/28 03:24:44;;;;;;;11.13;8.70;;;;;;;;;;5001943;28;20553;-89
2023/05/28 03:27:11;;;;;;;11.37;7.43;;;;;;;;;;5001007;28;20472;-88
2023/05/28 03:29:42;;;;;;;14.40;7.87;;;;;;;;;;5001398;28;20441;-88
2023/05/28 03:32:12;;;;;;;9.77;7.40;;;;;;;;;;5004795;28;20423;-88
2023/05/28 03:34:45;;;;;;;11.00;7.07;;;;;;;;;;5017347;28;20397;-88
2023/05/28 03:37:17;;;;;;;10.43;8.07;;;11.60;1.00;;;;;;5011458;28;20504;-89
2023/05/28 03:39:45;;;;;;;10.30;7.17;;;12.00;1.00;;;;;;5002365;28;20590;-89
2023/05/28 03:42:13;;;;;;;12.57;7.37;;;;;;;;;;5000796;28;20513;-88
2023/05/28 03:44:40;;;;;;;10.03;7.10;;;;;;;;;;5000913;28;20468;-88
2023/05/28 03:47:08;;;;;;;9.20;6.47;;;;;;;;;;5000451;28;20481;-88
2023/05/28 03:49:39;;;;;;;9.00;6.90;;;;;;;;;;5005000;28;20528;-88
2023/05/28 03:52:10;;;;;;;11.90;7.13;;;11.80;99.90;;;;;;5001183;28;20465;-88
2023/05/28 03:54:38;;;;;;;7.10;6.43;;;11.80;99.90;;;;;;5001179;28;20516;-88
2023/05/28 03:57:06;;;;;;;11.93;6.60;;;;;;;;;;4999795;28;20480;-88
2023/05/28 03:59:33;;;;;;;9.80;7.47;;;;;;;;;;5001343;28;20410;-88
2023/05/28 04:02:05;;;;;;;10.43;7.10;;;11.80;1.00;;;;;;5003957;28;20433;-89
2023/05/28 04:04:39;;;;;;;7.60;6.83;;;11.90;1.00;;;;;;5020516;28;20413;-89
2023/05/28 04:07:08;;;;;;;9.63;6.53;;;;;;;;;;5017759;28;20508;-89
2023/05/28 04:09:43;;;;;;;9.17;6.80;;;;;;;;;;5004965;28;20437;-88
2023/05/28 04:12:12;;;;;;;12.83;10.20;;;;;;;;;;5012299;28;20512;-88
2023/05/28 04:14:42;;;;;;;13.27;7.40;;;;;;;;;;5002416;28;20935;-88
2023/05/28 04:17:11;;;;;;;10.33;6.97;;;;;;;;;;5004671;28;20465;-89
2023/05/28 04:19:39;;;;;;;7.47;6.37;;;;;;;;;;5007542;28;20483;-89
2023/05/28 04:22:07;;;;;;;8.00;6.30;;;;;;;;;;5004509;28;20438;-89
2023/05/28 04:24:34;;;;;;;12.57;6.63;;;;;;;;;;5004791;28;20483;-89
2023/05/28 04:27:06;;;;;;;11.43;6.53;;;;;;;;;;5011907;28;20465;-90
2023/05/28 04:29:38;;;;;;;13.20;6.87;;;;;;;;;;5015134;28;20457;-91
2023/05/28 04:32:13;;;;;;;11.73;7.03;;;;;;;;;;5016147;28;20430;-90
2023/05/28 04:34:54;;;;;;;8.33;6.60;;;12.60;99.90;;;;;;5008783;28;20483;-90
2023/05/28 04:37:24;;;;;;;7.17;6.40;;;;;;;;;;5007075;28;20496;-90
2023/05/28 04:39:54;;;;;;;11.10;5.77;;;;;;;;;;5015703;28;20441;-89
2023/05/28 04:42:23;;;;;;;10.53;7.30;;;;;;;;;;5019586;28;20468;-88
2023/05/28 04:44:53;;;;;;;7.50;5.93;;;;;;;;;;5014384;28;20461;-89
2023/05/28 04:47:25;;;;;;;9.40;6.00;;;12.70;99.90;;;;;;5003373;28;20937;-89
2023/05/28 04:49:57;;;;;;;7.60;6.60;;;12.70;99.90;;;;;;5003039;28;20435;-88
2023/05/28 04:52:24;;;;;;;9.90;5.73;;;;;;;;;;5010828;28;20491;-88
2023/05/28 04:54:52;;;;;;;10.03;6.50;;;;;;;;;;5016904;28;20500;-88
2023/05/28 04:57:22;;;;;;;7.60;6.00;;;12.90;99.90;;;;;;5017751;28;20504;-89
2023/05/28 04:59:54;;;;;;;11.13;6.00;;;;;;;;;;5017464;28;20424;-89
2023/05/28 05:02:26;;;;;;;10.40;5.07;;;13.00;99.90;;;;;;5019303;28;20433;-90
2023/05/28 05:04:57;;;;;;;7.17;5.03;;;13.00;99.90;;;;;;5019422;28;20492;-90
2023/05/28 05:07:30;;;;;;;7.70;6.47;;;;;;;;;;5019621;28;20536;-90
2023/05/28 05:09:58;;;;;;;8.13;6.53;;;;;;;;;;5019517;28;20488;-90
2023/05/28 05:12:25;;;;;;;8.90;6.20;;;;;;;;;;5018246;28;20484;-89
2023/05/28 05:14:54;;;;;;;12.33;5.30;;;;;;;;;;5014702;28;20448;-89
2023/05/28 05:17:22;;;;;;;13.03;6.30;;;;;;;;;;5007742;28;20456;-89
2023/05/28 05:19:49;;;;;;;8.20;6.13;;;;;;;;;;5012325;28;20442;-89
2023/05/28 05:22:17;;;;;;;9.83;5.50;;;;;;;;;;5012306;28;20457;-89
2023/05/28 05:24:44;;;;;;;9.10;5.90;;;;;;;;;;5015444;28;20437;-88
2023/05/28 05:27:11;;;;;;;8.07;5.40;;;;;;;;;;5013544;28;20472;-89
2023/05/28 05:29:39;;;;;;;10.20;5.00;;;;;;;;;;5017817;28;20449;-89
2023/05/28 05:32:11;;;;;;;10.00;6.47;;;;;;;;;;5019277;28;20427;-88
2023/05/28 05:34:41;;;;;;;9.80;6.63;;;;;;;;;;5015603;28;20469;-87
2023/05/28 05:37:14;;;;;;;10.50;5.73;;;;;;;;;;5004666;28;20432;-88
2023/05/28 05:39:42;;;;;;;7.63;6.83;;;;;;;;;;5012295;28;20441;-88
2023/05/28 05:42:13;;;;;;;8.10;5.77;;;;;;;;;;5013818;28;20454;-89
2023/05/28 05:44:42;;;;;;;9.50;6.33;;;;;;;;;;5006904;28;20919;-88
2023/05/28 05:47:11;;;;;;;6.27;5.67;;;;;;;;;;5005119;28;20555;-88
2023/05/28 05:49:38;;;;;;;8.70;5.93;;;;;;;;;;5003951;28;20610;-89
2023/05/28 05:52:07;;;;;;;10.77;8.63;;;14.10;99.90;;;;;;5003849;28;20455;-89
2023/05/28 05:54:35;;;;;;;9.23;5.97;;;;;;;;;;5004537;28;20860;-89
2023/05/28 05:57:03;;;;;;;9.03;6.23;;;;;;;;;;5022519;28;20480;-90
2023/05/28 05:59:30;;;;;;;7.90;6.17;;;;;;;;;;5023033;28;20448;-90
2023/05/28 06:01:58;;;;;;;7.83;5.67;;;;;;;;;;5022600;28;20472;-88
2023/05/28 06:04:31;;;;;;;7.00;5.63;;;;;;;;;;5006835;28;20496;-88
2023/05/28 06:13:17;;;;;;;8.43;6.33;;;;;;;;;;4986083;28;20826;-88
2023/05/28 06:15:45;;;;;;;6.00;5.00;;;;;;;;;;5002549;28;20459;-89
2023/05/28 06:18:13;;;;;;;7.77;5.67;;;;;;;;;;5005413;28;20453;-88
2023/05/28 06:20:42;;;;;;;9.30;5.47;;;;;;;;;;5005541;28;21010;-88
2023/05/28 06:23:09;;;;;;;8.87;5.13;;;;;;;;;;5002358;28;20630;-89
2023/05/28 06:25:37;;;;;;;9.30;5.60;;;;;;;;;;5001881;28;20936;-89
2023/05/28 06:28:04;;;;;;;6.47;4.80;;;;;;;;;;5000329;28;20975;-89
2023/05/28 06:30:35;;;;;;;7.63;4.10;;;;;;;;;;5003215;28;20483;-89
2023/05/28 06:33:02;;;;;;;7.23;5.00;;;;;;;;;;5003868;28;20475;-88
2023/05/28 06:35:30;;;;;;;5.90;4.47;;;;;;;;;;5003788;28;20461;-88
2023/05/28 06:37:59;;;;;;;5.80;4.13;;;;;;;;;;5004469;28;20476;-88
2023/05/28 06:40:28;;;;;;;6.17;4.27;;;;;;;;;;5004804;28;20547;-88
2023/05/28 06:42:56;;;;;;;5.63;4.20;;;;;;;;;;5021229;28;20453;-88
2023/05/28 06:45:23;;;;;;;7.47;5.17;;;;;;;;;;5021800;28;20440;-89
2023/05/28 06:47:51;;;;;;;6.40;4.50;;;;;;;;;;5017107;28;20978;-88
2023/05/28 06:50:18;;;;;;;8.53;5.20;;;16.00;1.00;;;;;;5008847;28;20456;-88
2023/05/28 06:52:45;;;;;;;6.10;4.30;;;;;;;;;;5007678;28;20453;-88
2023/05/28 06:55:13;;;;;;;5.27;4.20;;;16.30;99.90;;;;;;5008045;28;20907;-88
2023/05/28 06:57:40;;;;;;;5.57;4.37;;;16.40;99.90;;;;;;5005421;28;20527;-88
2023/05/28 07:00:13;;;;;;;5.00;3.90;;;16.30;1.00;;;;;;5006281;28;20536;-88
2023/05/28 07:02:40;;;;;;;5.77;4.43;;;16.60;1.00;;;;;;5006058;28;20484;-88
2023/05/28 07:05:10;;;;;;;6.00;4.20;;;17.10;1.00;;;;;;5017688;28;20460;-89
2023/05/28 07:07:37;;;;;;;5.40;4.10;;;16.80;99.90;;;;;;5021533;28;20485;-89
2023/05/28 07:10:07;;;;;;;4.53;3.80;;;16.80;1.00;;;;;;5017485;28;20552;-88
2023/05/28 07:12:35;;;;;;;6.03;4.50;;;16.90;99.90;;;;;;5016948;28;20453;-88
2023/05/28 07:15:03;;;;;;;7.20;4.37;;;;;;;;;;5016699;28;20473;-87
2023/05/28 07:17:30;;;;;;;7.40;4.13;;;;;;;;;;5019241;28;20487;-88
2023/05/28 07:19:57;;;;;;;9.20;4.07;;;;;;;;;;5011259;28;20521;-88
2023/05/28 07:22:25;;;;;;;4.87;3.20;;;17.30;99.90;;;;;;5002500;28;20983;-88
2023/05/28 07:24:52;;;;;;;4.00;3.60;;;17.20;99.90;;;;;;5003013;28;20456;-88
2023/05/28 07:27:19;;;;;;;4.67;3.50;;;17.30;99.90;;;;;;5019291;28;20476;-88
2023/05/28 07:29:48;;;;;;;5.73;3.20;;;17.30;99.90;;;;;;5014579;28;20453;-88
2023/05/28 07:32:15;;;;;;;5.60;4.13;;;;;;;;;;5002421;28;20457;-88
2023/05/28 07:34:43;;;;;;;4.13;3.13;;;;;;;;;;5006583;28;20520;-89
2023/05/28 07:37:10;;;;;;;6.00;3.83;;;;;;;;;;5001310;28;20899;-88
2023/05/28 07:39:37;;;;;;;6.43;4.03;;;;;;;;;;5002265;28;20553;-88
2023/05/28 07:42:06;;;;;;;3.10;2.30;;;17.70;99.90;;;;;;5006432;28;20509;-88
2023/05/28 07:44:33;;;;;;;5.30;3.27;;;18.10;99.90;;;;;;5007226;28;20453;-88
2023/05/28 07:47:01;;;;;;;3.77;2.90;;;17.80;99.90;;;;;;5007321;28;20907;-88
2023/05/28 07:49:28;;;;;;;5.27;3.70;;;17.90;1.00;;;;;;5002564;28;20477;-88
2023/05/28 07:51:55;;;;;;;3.37;2.77;;;;;;;;;;5003863;28;20445;-88
2023/05/28 07:54:23;;;;;;;3.20;2.90;;;;;;;;;;5009332;28;20453;-87
2023/05/28 07:56:50;;;;;;;3.67;2.40;;;;;;;;;;5011164;28;20450;-88
2023/05/28 07:59:22;;;;;;;4.17;2.17;;;18.10;1.00;;;;;;5002893;28;20520;-88
2023/05/28 08:01:49;;;;;;;3.90;2.67;;;17.70;99.90;;;;;;5004372;28;20472;-88
2023/05/28 08:04:24;;;;;;;5.00;2.80;;;18.20;99.90;;;;;;5011957;28;20425;-89
2023/05/28 08:06:53;;;;;;;9.10;2.43;;;18.20;99.90;;;;;;5013700;28;20461;-88
2023/05/28 08:09:21;;;;;;;3.33;2.60;;;;;;;;;;5005259;28;20476;-88
2023/05/28 08:11:48;;;;;;;10.03;3.13;;;;;;;;;;5007749;28;20449;-88
2023/05/28 08:14:15;;;;;;;4.47;2.80;;;18.30;99.90;;;;;;5003616;28;20449;-89
2023/05/28 08:16:42;;;;;;;4.20;3.80;;;;;;;;;;5011019;28;20425;-88
2023/05/28 08:19:09;;;;;;;3.97;2.53;;;;;;;;;;5019968;28;20425;-89
2023/05/28 08:24:20;;;;;;;3.13;2.73;;;;;;;;;;5018281;28;20440;-89
2023/05/28 08:26:47;;;;;;;6.33;2.73;;;;;;;;;;5019988;28;20453;-89
2023/05/28 08:29:16;;;;;;;5.57;2.93;;;18.50;99.90;;;;;;5020024;28;20464;-89
2023/05/28 08:31:44;;;;;;;5.47;3.03;;;;;;;;;;5015035;28;20519;-88
2023/05/28 08:34:12;;;;;;;2.60;2.40;;;;;;;;;;5006159;28;20548;-88
2023/05/28 08:36:40;;;;;;;5.70;2.83;;;18.60;99.90;;;;;;5002917;28;20461;-88
2023/05/28 08:39:08;;;;;;;6.10;2.87;;;;;;;;;;5010318;28;20444;-90
2023/05/28 08:41:35;;;;;;;5.00;2.80;;;18.60;99.90;;;;;;5002910;28;20632;-87
2023/05/28 08:44:02;;;;;;;6.77;3.10;;;;;;;;;;5001464;28;20449;-88
2023/05/28 08:46:32;;;;;;;3.10;2.20;;;19.10;99.90;;;;;;5008290;28;20540;-84
2023/05/28 08:48:59;;;;;;;3.77;3.30;;;18.80;99.90;;;;;;5004386;28;20452;-84
2023/05/28 08:51:32;;;;;;;8.17;3.00;;;18.90;99.90;;;;;;4999209;28;20453;-84
2023/05/28 08:54:01;;;;;;;4.70;3.27;;;19.00;99.90;;;;;;4999290;28;20774;-85
2023/05/28 08:56:28;;;;;;;3.70;2.70;;;19.40;1.00;;;;;;4998243;28;20448;-84
2023/05/28 08:58:56;;;;;;;5.03;3.20;;;19.20;99.90;;;;;;5052736;23;20527;-86
2023/05/28 09:01:23;;;;;;;2.40;2.20;;;19.10;99.90;;;;;;5012870;28;20521;-85
2023/05/28 09:03:51;;;;;;;6.93;3.33;;;19.20;99.90;;;;;;5016137;28;20539;-86
2023/05/28 09:06:19;;;;;;;4.67;3.03;;;19.20;99.90;;;;;;5007489;28;20449;-86
2023/05/28 09:08:46;;;;;;;10.60;3.67;;;19.20;99.90;;;;;;5002062;28;20480;-87
2023/05/28 09:11:15;;;;;;;3.83;2.60;;;19.10;99.90;;;;;;5001664;28;20455;-86
2023/05/28 09:13:43;;;;;;;4.83;2.90;;;19.10;99.90;;;;;;5002833;28;20543;-86
2023/05/28 09:16:10;;;;;;;3.63;2.60;;;;;;;;;;5002758;28;20456;-86
2023/05/28 09:18:37;;;;;;;7.80;3.00;;;19.20;99.90;;;;;;5005050;28;20523;-87
2023/05/28 09:21:10;;;;;;;3.00;2.53;;;19.30;99.90;;;;;;5006068;28;20453;-87
2023/05/28 09:23:37;;;;;;;7.63;3.30;;;19.30;99.90;;;;;;5004583;28;20536;-87
2023/05/28 09:26:08;;;;;;;6.37;2.00;;;19.20;99.90;;;;;;5003506;28;20461;-87
2023/05/28 09:28:41;;;;;;;4.03;2.80;;;19.30;99.90;;;;;;5004868;28;20872;-87
2023/05/28 09:31:08;;;;;;;3.77;2.90;;;19.40;99.90;;;;;;5003020;28;20516;-87
2023/05/28 09:33:36;;;;;;;2.80;2.60;;;19.40;99.90;;;;;;5004153;28;20545;-86
2023/05/28 09:36:03;;;;;;;2.90;2.60;;;19.60;99.90;;;;;;5002543;28;20476;-86
2023/05/28 09:38:39;;;;;;;2.60;2.40;;;19.70;99.90;;;;;;5003468;28;20519;-86
2023/05/28 09:41:09;;;;;;;4.50;3.00;;;19.60;99.90;;;;;;5003691;28;20441;-86
2023/05/28 09:43:39;;;;;;;4.43;2.50;;;19.60;99.90;;;;;;5002123;28;20462;-85
2023/05/28 09:46:10;;;;;;;6.50;2.80;;;19.70;99.90;;;;;;5006286;28;20512;-84
2023/05/28 09:48:36;;;;;;;4.10;2.40;;;19.70;99.90;;;;;;5011681;28;20503;-85
2023/05/28 09:51:05;;;;;;;4.40;3.50;;;19.90;99.90;;;;;;5008919;28;20456;-85
2023/05/28 09:53:33;;;;;;;5.63;2.53;;;20.00;99.90;;;;;;5009370;28;20495;-87
2023/05/28 09:56:01;;;;;;;4.17;2.27;;;20.00;99.90;;;;;;5008726;28;20956;-87
2023/05/28 09:58:34;;;;;;;5.83;3.10;;;20.20;99.90;;;;;;5007421;28;20508;-85
2023/05/28 10:01:11;;;;;;;3.90;2.63;;;20.20;99.90;;;;;;5005344;28;20839;-86
2023/05/28 10:03:42;;;;;;;4.80;3.03;;;20.20;99.90;;;;;;5007732;28;20535;-86
2023/05/28 10:06:12;;;;;;;4.50;2.90;;;20.30;99.90;;;;;;5010315;28;20497;-84
2023/05/28 10:08:40;;;;;;;5.87;2.93;;;20.30;99.90;;;;;;5005207;28;20468;-84
2023/05/28 10:11:12;;;;;;;4.20;2.60;;;20.20;99.90;;;;;;5015779;28;20487;-84
2023/05/28 10:13:41;;;;;;;4.90;3.43;;;20.10;99.90;;;;;;5016795;28;20429;-84
2023/05/28 10:16:09;;;;;;;5.23;4.17;;;20.20;99.90;;;;;;5016988;28;20507;-85
2023/05/28 10:18:36;;;;;;;5.10;2.70;;;20.20;99.90;;;;;;5017430;28;20475;-84
2023/05/28 10:21:05;;;;;;;4.50;3.10;;;20.10;99.90;;;;;;5015183;28;20445;-84
2023/05/28 10:23:33;;;;;;;3.00;2.47;;;20.10;99.90;;;;;;5005322;28;20488;-84
2023/05/28 10:26:00;;;;;;;3.40;2.63;;;20.20;99.90;;;;;;5004500;28;20527;-85
2023/05/28 10:28:30;;;;;;;3.07;2.40;;;20.30;99.90;;;;;;5008572;28;20472;-85
2023/05/28 10:31:03;;;;;;;3.90;2.40;;;20.40;99.90;;;;;;5012653;28;20491;-85
2023/05/28 10:33:32;;;;;;;2.50;2.30;;;20.00;99.90;;;;;;5022201;28;20404;-85
2023/05/28 10:36:01;;;;;;;7.30;3.47;;;20.60;1.00;;;;;;5010938;28;20437;-85
2023/05/28 10:38:29;;;;;;;5.13;2.70;;;20.30;99.90;;;;;;5007125;28;20468;-85
2023/05/28 10:41:03;;;;;;;6.13;2.30;;;20.30;99.90;;;;;;5007957;28;20452;-86
2023/05/28 10:43:45;;;;;;;2.63;2.40;;;20.40;99.90;;;;;;5010673;28;20469;-86
2023/05/28 10:46:15;;;;;;;6.37;2.90;;;20.40;99.90;;;;;;5008401;28;20441;-85
2023/05/28 10:49:06;;;;;;;5.73;2.30;;;20.40;99.90;;;;;;5008650;28;20529;-85
2023/05/28 10:51:56;;;;;;;2.53;2.30;;;20.60;99.90;;;;;;5015902;28;20500;-87
2023/05/28 10:54:25;;;;;;;4.30;2.30;;;20.70;99.90;;;;;;5016393;28;20467;-87
2023/05/28 10:57:11;;;;;;;4.30;2.70;;;20.80;1.00;;;;;;5014060;28;20463;-87
2023/05/28 10:59:47;;;;;;;8.13;2.87;;;20.80;99.90;;;;;;5014596;28;20453;-88
2023/05/28 11:02:17;;;;;;;5.33;3.00;;;20.60;1.00;;;;;;5014908;28;20484;-89
2023/05/28 11:04:46;;;;;;;2.90;2.70;;;20.70;99.90;;;;;;5020560;28;20493;-87
2023/05/28 11:07:14;;;;;;;2.57;2.37;;;20.60;99.90;;;;;;5020308;28;20483;-87
2023/05/28 11:09:41;;;;;;;5.33;2.67;;;20.80;99.90;;;;;;5012528;28;20461;-86
2023/05/28 11:12:09;;;;;;;5.43;3.07;;;20.80;99.90;;;;;;5005707;28;20445;-87
2023/05/28 11:14:37;;;;;;;2.50;2.30;;;20.80;99.90;;;;;;5004450;28;20449;-86
2023/05/28 11:17:09;;;;;;;3.67;2.80;;;20.60;1.00;;;;;;5004663;28;20440;-86
2023/05/28 11:19:43;;;;;;;4.30;2.50;;;21.10;1.00;;;;;;5003446;28;20425;-87
2023/05/28 11:22:11;;;;;;;2.83;2.47;;;21.20;99.90;;;;;;5001123;28;20853;-86
2023/05/28 11:25:06;;;;;;;2.93;2.73;;;21.00;99.90;;;;;;5001698;28;20452;-86
2023/05/28 11:27:35;;;;;;;3.73;2.50;;;20.90;99.90;;;;;;4977955;28;20853;-86
2023/05/28 11:30:04;;;;;;;6.40;2.70;;;20.90;99.90;;;;;;5001518;28;20491;-86
2023/05/28 11:32:33;;;;;;;3.80;2.23;;;21.00;99.90;;;;;;5002891;28;20943;-86
2023/05/28 11:35:00;;;;;;;2.70;2.50;;;21.00;99.90;;;;;;5010042;28;20451;-85
2023/05/28 11:37:30;;;;;;;3.67;2.23;;;21.20;99.90;;;;;;5001803;28;20493;-86
2023/05/28 11:39:57;;;;;;;9.03;2.70;;;21.20;99.90;;;;;;5002816;28;20805;-86
2023/05/28 11:42:25;;;;;;;2.67;2.43;;;21.20;99.90;;;;;;5000888;28;21011;-86
2023/05/28 11:44:53;;;;;;;3.47;3.03;;;21.40;99.90;;;;;;5002442;28;20812;-86
2023/05/28 11:47:20;;;;;;;6.53;3.10;;;21.50;99.90;;;;;;5011493;28;20453;-85
2023/05/28 11:49:48;;;;;;;4.43;3.50;;;21.50;99.90;;;;;;5014028;28;20495;-86
2023/05/28 11:52:17;;;;;;;4.40;2.90;;;21.60;99.90;;;;;;5005829;28;20513;-86
2023/05/28 11:54:47;;;;;;;5.07;3.00;;;21.70;99.90;;;;;;5001375;28;20473;-86
2023/05/28 11:57:22;;;;;;;5.43;2.73;;;21.70;99.90;;;;;;5001560;28;20489;-86
2023/05/28 11:59:56;;;;;;;3.93;2.77;;;21.70;99.90;;;;;;5004239;28;20453;-85
2023/05/28 12:02:24;;;;;;;5.50;3.90;;;21.70;99.90;;;;;;5017215;28;20461;-85
2023/05/28 12:04:55;;;;;;;5.17;4.47;;;21.80;99.90;;;;;;5019049;28;20449;-85
2023/05/28 12:07:23;;;;;;;3.57;3.10;;;21.80;99.90;;;;;;5015762;28;20474;-85
2023/05/28 12:10:06;;;;;;;4.20;2.77;;;21.90;99.90;;;;;;5017645;28;20452;-86
2023/05/28 12:12:33;;;;;;;20.53;14.97;;;21.90;99.90;;;;;;5018146;28;20430;-87
2023/05/28 12:15:02;;;;;;;5.47;4.43;;;22.00;99.90;;;;;;5018278;28;20433;-86
2023/05/28 12:17:36;;;;;;;4.53;3.00;;;22.00;99.90;;;;;;5018906;28;20505;-85
2023/05/28 12:20:06;;;;;;;3.70;3.17;;;21.90;99.90;;;;;;5019054;28;20440;-86
2023/05/28 12:22:33;;;;;;;4.60;2.87;;;21.90;99.90;;;;;;5018627;28;20519;-86
2023/05/28 12:25:02;;;;;;;4.27;3.37;;;21.90;99.90;;;;;;5017836;28;20446;-86
2023/05/28 12:27:29;;;;;;;2.47;2.27;;;21.90;99.90;;;;;;5018487;28;20524;-86
2023/05/28 12:29:56;;;;;;;3.00;2.70;;;21.90;99.90;;;;;;5008843;28;20449;-86
2023/05/28 12:32:23;;;;;;;3.63;2.43;;;21.90;99.90;;;;;;5007647;28;20507;-86
2023/05/28 12:34:51;;;;;;;4.03;2.63;;;21.90;99.90;;;;;;5005959;28;20460;-86
2023/05/28 12:37:18;;;;;;;5.70;3.00;;;22.00;99.90;;;;;;5004003;28;20474;-86
2023/05/28 12:39:47;;;;;;;4.90;3.40;;;21.90;99.90;;;;;;5002779;28;20543;-86
2023/05/28 12:42:15;;;;;;;3.37;3.07;;;22.00;99.90;;;;;;5003560;28;20486;-86
2023/05/28 12:44:42;;;;;;;4.10;2.30;;;21.90;99.90;;;;;;5002768;28;20448;-86
2023/05/28 12:47:08;;;;;;;4.43;4.03;;;22.00;99.90;;;;;;5002875;28;20560;-86
2023/05/28 12:49:35;;;;;;;5.00;2.90;;;22.00;99.90;;;;;;5005049;28;20528;-86
2023/05/28 12:52:02;;;;;;;3.20;2.70;;;21.90;99.90;;;;;;5018906;28;20509;-86
2023/05/28 12:54:29;;;;;;;7.07;2.67;;;21.90;99.90;;;;;;5019198;28;20448;-86
2023/05/28 12:56:56;;;;;;;5.73;2.80;;;22.20;99.90;;;;;;5012145;28;20543;-87
2023/05/28 12:59:26;;;;;;;4.67;3.00;;;22.10;99.90;;;;;;5010537;28;20433;-86
2023/05/28 13:01:53;;;;;;;3.10;2.60;;;22.10;99.90;;;;;;5009706;28;20781;-87
2023/05/28 13:04:20;;;;;;;3.47;2.70;;;22.10;99.90;;;;;;5006676;28;20488;-87
2023/05/28 13:06:47;;;;;;;4.10;2.43;;;22.20;99.90;;;;;;5002971;28;20453;-87
2023/05/28 13:09:14;;;;;;;3.30;3.00;;;22.20;99.90;;;;;;5002495;28;20458;-87
2023/05/28 13:11:43;;;;;;;4.30;3.40;;;22.30;99.90;;;;;;5001878;28;20446;-87
2023/05/28 13:14:09;;;;;;;6.37;2.97;;;22.30;99.90;;;;;;5005168;28;20480;-87
2023/05/28 13:16:38;;;;;;;4.97;3.07;;;22.30;99.90;;;;;;5005463;28;20456;-87
2023/05/28 13:19:05;;;;;;;6.13;3.13;;;22.40;99.90;;;;;;5000708;28;21016;-86
2023/05/28 13:21:34;;;;;;;3.20;2.50;;;22.40;99.90;;;;;;5008682;28;20448;-86
2023/05/28 13:24:02;;;;;;;5.97;2.60;;;22.40;99.90;;;;;;5015593;28;20479;-87
2023/05/28 13:26:32;;;;;;;5.20;2.67;;;22.20;99.90;;;;;;5017820;28;20456;-87
2023/05/28 13:28:59;;;;;;;4.63;2.80;;;22.30;99.90;;;;;;5002826;28;20468;-87
2023/05/28 13:31:26;;;;;;;2.57;2.37;;;22.10;1.00;;;;;;5000774;28;20512;-87
2023/05/28 13:33:54;;;;;;;2.90;2.57;;;22.50;99.90;;;;;;5000943;28;20512;-86
2023/05/28 13:36:21;;;;;;;3.40;3.07;;;22.50;99.90;;;;;;5016980;28;20448;-83